createdAt,value
2019-04-04T00:00:01.644Z,13.47
2019-04-04T00:02:30.171Z,13.23
2019-04-04T00:04:58.610Z,13.47
2019-04-04T00:07:28.913Z,14.43
2019-04-04T00:09:57.282Z,13.83
2019-04-04T00:12:25.737Z,13.03
2019-04-04T00:14:54.174Z,12.80
2019-04-04T00:17:23.264Z,12.47
2019-04-04T00:19:52.350Z,13.40
2019-04-04T00:22:20.810Z,12.57
2019-04-04T00:24:50.050Z,12.57
2019-04-04T00:27:18.789Z,14.23
2019-04-04T00:29:47.957Z,13.93
2019-04-04T00:32:17.006Z,13.90
2019-04-04T00:34:45.457Z,13.00
2019-04-04T00:37:13.914Z,13.87
2019-04-04T00:39:42.387Z,13.83
2019-04-04T00:42:10.831Z,14.07
2019-04-04T00:44:39.303Z,13.87
2019-04-04T00:47:07.755Z,13.73
2019-04-04T00:49:36.250Z,14.57
2019-04-04T00:52:05.030Z,14.67
2019-04-04T00:54:33.500Z,14.07
2019-04-04T00:57:01.972Z,13.37
2019-04-04T00:59:30.418Z,13.20
2019-04-04T01:01:58.886Z,14.77
2019-04-04T01:04:27.344Z,13.40
2019-04-04T01:06:55.814Z,14.17
2019-04-04T01:09:24.264Z,13.67
2019-04-04T01:11:52.741Z,14.50
2019-04-04T01:14:21.198Z,14.00
2019-04-04T01:16:50.259Z,14.10
2019-04-04T01:19:18.732Z,14.23
2019-04-04T01:21:47.181Z,14.37
2019-04-04T01:24:15.629Z,14.53
2019-04-04T01:26:44.079Z,13.87
2019-04-04T01:29:12.548Z,14.53
2019-04-04T01:31:41.007Z,13.87
2019-04-04T01:34:09.456Z,14.00
2019-04-04T01:36:37.907Z,13.70
2019-04-04T01:39:06.911Z,14.10
2019-04-04T01:41:36.279Z,14.43
2019-04-04T01:44:05.675Z,13.97
2019-04-04T01:46:34.144Z,14.13
2019-04-04T01:49:02.600Z,13.57
2019-04-04T01:51:31.037Z,12.87
2019-04-04T01:54:00.980Z,12.53
2019-04-04T01:56:29.679Z,12.80
2019-04-04T01:58:58.115Z,12.53
2019-04-04T02:01:26.583Z,12.43
2019-04-04T02:03:55.032Z,12.87
2019-04-04T02:06:23.490Z,12.97
2019-04-04T02:08:51.945Z,13.13
2019-04-04T02:11:20.415Z,11.97
2019-04-04T02:13:48.851Z,12.50
2019-04-04T02:16:17.546Z,12.57
2019-04-04T02:18:46.035Z,12.93
2019-04-04T02:21:14.484Z,12.40
2019-04-04T02:23:42.939Z,12.63
2019-04-04T02:26:11.447Z,12.23
2019-04-04T02:28:40.634Z,11.87
2019-04-04T02:31:15.569Z,12.67
2019-04-04T02:33:44.028Z,12.27
2019-04-04T02:36:16.178Z,12.87
2019-04-04T02:38:42.662Z,11.47
2019-04-04T02:41:15.061Z,11.77
2019-04-04T02:43:41.287Z,13.20
2019-04-04T02:46:11.574Z,11.17
2019-04-04T02:48:39.926Z,12.03
2019-04-04T02:51:08.465Z,12.47
2019-04-04T02:53:37.020Z,11.90
2019-04-04T02:56:05.473Z,12.77
2019-04-04T02:58:34.014Z,11.63
2019-04-04T03:01:02.505Z,12.47
2019-04-04T03:03:30.958Z,12.17
2019-04-04T03:05:59.384Z,12.03
2019-04-04T03:08:27.864Z,11.57
2019-04-04T03:10:56.296Z,12.17
2019-04-04T03:13:24.754Z,12.87
2019-04-04T03:15:53.199Z,13.00
2019-04-04T03:18:21.648Z,12.87
2019-04-04T03:20:50.817Z,12.73
2019-04-04T03:23:20.327Z,12.97
2019-04-04T03:25:48.764Z,14.17
2019-04-04T03:28:17.207Z,13.67
2019-04-04T03:30:52.736Z,13.77
2019-04-04T03:33:15.854Z,12.17
2019-04-04T03:35:44.320Z,12.90
2019-04-04T03:38:13.443Z,13.07
2019-04-04T03:40:42.634Z,12.27
2019-04-04T03:43:11.105Z,13.77
2019-04-04T03:45:39.568Z,12.37
2019-04-04T03:48:08.010Z,13.90
2019-04-04T03:50:36.543Z,13.63
2019-04-04T03:53:04.990Z,12.83
2019-04-04T03:55:33.436Z,13.83
2019-04-04T03:58:01.870Z,12.67
2019-04-04T04:00:31.266Z,13.47
2019-04-04T04:02:59.709Z,14.57
2019-04-04T04:05:33.928Z,14.33
2019-04-04T04:08:00.377Z,14.23
2019-04-04T04:10:32.108Z,14.27
2019-04-04T04:12:58.998Z,13.33
2019-04-04T04:15:30.427Z,13.53
2019-04-04T04:17:57.633Z,15.00
2019-04-04T04:20:26.108Z,14.30
2019-04-04T04:22:54.554Z,13.97
2019-04-04T04:25:23.016Z,13.60
2019-04-04T04:27:51.667Z,14.43
2019-04-04T04:30:21.205Z,15.53
2019-04-04T04:32:55.841Z,15.93
2019-04-04T04:35:20.840Z,14.93
2019-04-04T04:37:52.285Z,15.50
2019-04-04T04:40:19.447Z,14.77
2019-04-04T04:42:47.969Z,14.40
2019-04-04T04:45:16.402Z,15.37
2019-04-04T04:47:44.896Z,14.37
2019-04-04T04:50:13.454Z,14.60
2019-04-04T04:52:41.915Z,15.10
2019-04-04T04:55:12.015Z,14.77
2019-04-04T04:57:41.139Z,15.23
2019-04-04T05:00:10.017Z,14.90
2019-04-04T05:02:38.533Z,15.03
2019-04-04T05:05:07.421Z,15.07
2019-04-04T05:07:38.488Z,14.33
2019-04-04T05:10:08.901Z,14.87
2019-04-04T05:12:37.356Z,15.20
2019-04-04T05:15:06.639Z,14.77
2019-04-04T05:17:35.086Z,13.97
2019-04-04T05:20:05.468Z,14.73
2019-04-04T05:22:33.927Z,14.67
2019-04-04T05:25:08.314Z,14.73
2019-04-04T05:27:32.517Z,14.40
2019-04-04T05:30:00.967Z,14.23
2019-04-04T05:32:29.493Z,12.90
2019-04-04T05:35:00.896Z,13.37
2019-04-04T05:37:28.081Z,13.00
2019-04-04T05:39:56.535Z,13.37
2019-04-04T05:42:24.984Z,13.50
2019-04-04T05:44:53.440Z,12.93
2019-04-04T05:47:23.171Z,13.40
2019-04-04T05:49:52.069Z,13.20
2019-04-04T05:52:20.869Z,13.57
2019-04-04T05:54:49.350Z,14.27
2019-04-04T05:57:19.760Z,13.07
2019-04-04T05:59:47.997Z,12.80
2019-04-04T06:02:16.501Z,13.30
2019-04-04T06:04:44.998Z,13.17
2019-04-04T06:07:16.267Z,13.27
2019-04-04T06:09:45.996Z,13.30
2019-04-04T06:12:13.851Z,13.13
2019-04-04T06:14:42.307Z,13.13
2019-04-04T06:17:10.751Z,12.57
2019-04-04T06:19:39.188Z,12.80
2019-04-04T06:22:07.660Z,14.10
2019-04-04T06:24:36.117Z,12.40
2019-04-04T06:27:04.559Z,11.67
2019-04-04T06:29:33.030Z,12.97
2019-04-04T06:32:01.465Z,12.70
2019-04-04T06:34:29.924Z,13.27
2019-04-04T06:36:58.399Z,11.77
2019-04-04T06:39:26.835Z,11.73
2019-04-04T06:41:55.422Z,13.27
2019-04-04T06:44:23.876Z,13.47
2019-04-04T06:46:53.596Z,12.80
2019-04-04T06:49:22.705Z,12.23
2019-04-04T06:51:51.208Z,11.83
2019-04-04T06:54:19.708Z,11.33
2019-04-04T06:56:48.167Z,11.90
2019-04-04T06:59:19.396Z,11.60
2019-04-04T07:01:47.920Z,12.50
2019-04-04T07:04:17.379Z,11.80
2019-04-04T07:06:45.976Z,11.10
2019-04-04T07:09:18.216Z,10.50
2019-04-04T07:11:44.601Z,10.93
2019-04-04T07:14:13.051Z,10.60
2019-04-04T07:16:41.602Z,11.53
2019-04-04T07:19:10.150Z,10.53
2019-04-04T07:21:38.599Z,10.87
2019-04-04T07:24:07.052Z,10.13
2019-04-04T07:26:35.480Z,9.33
2019-04-04T07:29:05.053Z,9.33
2019-04-04T07:31:35.110Z,9.57
2019-04-04T07:34:03.671Z,9.30
2019-04-04T07:36:32.131Z,10.20
2019-04-04T07:39:01.018Z,8.90
2019-04-04T07:41:29.596Z,9.77
2019-04-04T07:43:58.657Z,9.33
2019-04-04T07:46:27.163Z,10.07
2019-04-04T07:48:55.619Z,10.27
2019-04-04T07:51:24.064Z,9.90
2019-04-04T07:53:52.525Z,9.47
2019-04-04T07:56:21.107Z,9.90
2019-04-04T07:58:49.559Z,9.37
2019-04-04T08:01:17.989Z,9.50
2019-04-04T08:03:46.440Z,8.97
2019-04-04T08:06:15.051Z,9.07
2019-04-04T08:08:43.477Z,9.77
2019-04-04T08:11:13.306Z,9.03
2019-04-04T08:13:41.944Z,8.87
2019-04-04T08:16:10.394Z,8.83
2019-04-04T08:18:38.822Z,8.17
2019-04-04T08:21:07.274Z,7.70
2019-04-04T08:23:35.798Z,8.37
2019-04-04T08:26:04.246Z,7.10
2019-04-04T08:28:32.712Z,8.20
2019-04-04T08:31:01.165Z,7.77
2019-04-04T08:33:29.704Z,7.97
2019-04-04T08:36:05.820Z,7.93
2019-04-04T08:38:28.350Z,7.07
2019-04-04T08:40:56.798Z,7.83
2019-04-04T08:43:25.224Z,8.33
2019-04-04T08:45:53.729Z,7.63
2019-04-04T08:48:22.160Z,7.63
2019-04-04T08:50:51.247Z,7.00
2019-04-04T08:53:19.672Z,7.13
2019-04-04T08:55:48.124Z,7.03
2019-04-04T08:58:16.564Z,7.50
2019-04-04T09:00:44.985Z,6.73
2019-04-04T09:03:13.448Z,6.57
2019-04-04T09:05:41.877Z,7.57
2019-04-04T09:08:10.367Z,6.87
2019-04-04T09:10:38.934Z,6.33
2019-04-04T09:13:07.435Z,7.00
2019-04-04T09:15:35.890Z,7.07
2019-04-04T09:18:04.332Z,6.93
2019-04-04T09:20:32.760Z,7.13
2019-04-04T09:23:01.231Z,7.00
2019-04-04T09:25:29.696Z,7.37
2019-04-04T09:27:58.153Z,6.73
2019-04-04T09:30:26.724Z,7.13
2019-04-04T09:32:55.178Z,6.63
2019-04-04T09:35:23.593Z,6.93
2019-04-04T09:37:52.058Z,7.30
2019-04-04T09:40:21.300Z,6.97
2019-04-04T09:42:49.759Z,6.63
2019-04-04T09:45:18.265Z,6.07
2019-04-04T09:47:46.716Z,6.80
2019-04-04T09:50:15.616Z,6.67
2019-04-04T09:52:44.063Z,6.90
2019-04-04T09:55:12.563Z,6.23
2019-04-04T09:57:41.023Z,6.70
2019-04-04T10:00:18.092Z,6.83
2019-04-04T10:02:46.555Z,6.60
2019-04-04T10:05:15.427Z,6.10
2019-04-04T10:07:43.898Z,7.23
2019-04-04T10:10:12.956Z,5.97
2019-04-04T10:12:41.423Z,6.27
2019-04-04T10:15:10.179Z,6.03
2019-04-04T10:17:38.640Z,6.47
2019-04-04T10:20:07.512Z,6.60
2019-04-04T10:22:36.049Z,6.53
2019-04-04T10:25:05.161Z,6.20
2019-04-04T10:27:33.596Z,6.00
2019-04-04T10:30:02.052Z,5.87
2019-04-04T10:32:30.477Z,6.30
2019-04-04T10:34:58.934Z,5.93
2019-04-04T10:37:27.387Z,6.07
2019-04-04T10:39:55.829Z,5.60
2019-04-04T10:42:24.272Z,5.67
2019-04-04T10:44:52.719Z,5.37
2019-04-04T10:47:21.477Z,5.77
2019-04-04T10:49:49.936Z,5.23
2019-04-04T10:52:18.368Z,4.77
2019-04-04T10:54:46.810Z,5.43
2019-04-04T10:57:15.263Z,5.50
2019-04-04T10:59:43.713Z,4.80
2019-04-04T11:02:12.160Z,4.23
2019-04-04T11:04:40.585Z,3.73
2019-04-04T11:07:09.043Z,4.70
2019-04-04T11:09:42.249Z,4.63
2019-04-04T11:12:07.658Z,4.10
2019-04-04T11:14:36.085Z,4.23
2019-04-04T11:17:04.536Z,3.97
2019-04-04T11:19:32.976Z,4.37
2019-04-04T11:22:01.411Z,4.33
2019-04-04T11:24:29.899Z,4.20
2019-04-04T11:26:58.324Z,4.47
2019-04-04T11:29:26.779Z,3.87
2019-04-04T11:31:55.230Z,3.65
2019-04-04T11:34:23.668Z,3.92
2019-04-04T11:36:52.125Z,3.87
2019-04-04T11:39:21.474Z,3.87
2019-04-04T11:41:49.928Z,3.90
2019-04-04T11:44:18.348Z,3.65
2019-04-04T11:46:46.819Z,4.53
2019-04-04T11:49:15.246Z,3.97
2019-04-04T11:51:43.823Z,3.95
2019-04-04T11:54:12.248Z,4.40
2019-04-04T11:56:40.713Z,4.35
2019-04-04T11:59:09.142Z,4.50
2019-04-04T12:01:39.220Z,3.85
2019-04-04T12:04:07.336Z,4.65
2019-04-04T12:06:35.777Z,4.08
2019-04-04T12:09:06.506Z,3.92
2019-04-04T12:11:34.959Z,4.15
2019-04-04T12:14:04.526Z,4.33
2019-04-04T12:16:33.024Z,3.73
2019-04-04T12:19:01.503Z,3.67
2019-04-04T12:21:29.946Z,3.87
2019-04-04T12:23:58.365Z,3.67
2019-04-04T12:26:26.818Z,4.40
2019-04-04T12:28:55.241Z,3.30
2019-04-04T12:31:23.371Z,3.93
2019-04-04T12:33:51.818Z,3.43
2019-04-04T12:36:24.972Z,3.67
2019-04-04T12:38:50.453Z,3.77
2019-04-04T12:41:18.932Z,3.73
2019-04-04T12:43:47.377Z,4.00
2019-04-04T12:46:15.836Z,3.75
2019-04-04T12:48:44.256Z,3.40
2019-04-04T12:51:12.712Z,3.65
2019-04-04T12:53:41.168Z,3.70
2019-04-04T12:56:09.619Z,3.43
2019-04-04T12:58:38.059Z,3.47
2019-04-04T13:01:06.493Z,3.65
2019-04-04T13:03:34.944Z,3.30
2019-04-04T13:06:03.379Z,3.62
2019-04-04T13:08:31.855Z,3.30
2019-04-04T13:11:00.360Z,3.80
2019-04-04T13:13:28.813Z,3.30
2019-04-04T13:15:57.240Z,3.77
2019-04-04T13:18:25.699Z,3.10
2019-04-04T13:20:54.143Z,3.33
2019-04-04T13:23:22.600Z,4.00
2019-04-04T13:25:51.961Z,3.57
2019-04-04T13:28:20.425Z,4.00
2019-04-04T13:30:48.852Z,4.10
2019-04-04T13:33:17.307Z,3.50
2019-04-04T13:35:45.756Z,4.30
2019-04-04T13:38:14.280Z,4.20
2019-04-04T13:40:45.678Z,4.07
2019-04-04T13:43:12.976Z,5.67
2019-04-04T13:45:41.417Z,4.10
2019-04-04T13:48:12.434Z,4.00
2019-04-04T13:50:40.108Z,3.77
2019-04-04T13:53:08.572Z,4.23
2019-04-04T13:55:39.213Z,4.40
2019-04-04T13:58:07.213Z,4.13
2019-04-04T14:00:35.693Z,4.33
2019-04-04T14:03:04.119Z,4.43
2019-04-04T14:05:32.569Z,4.43
2019-04-04T14:08:01.425Z,4.20
2019-04-04T14:10:30.363Z,4.83
2019-04-04T14:12:58.852Z,4.80
2019-04-04T14:15:27.298Z,4.60
2019-04-04T14:17:55.739Z,4.27
2019-04-04T14:20:24.195Z,4.60
2019-04-04T14:22:52.639Z,4.97
2019-04-04T14:25:22.010Z,4.60
2019-04-04T14:27:50.456Z,4.60
2019-04-04T14:30:20.049Z,6.40
2019-04-04T14:32:48.493Z,5.10
2019-04-04T14:35:16.944Z,5.13
2019-04-04T14:37:45.379Z,7.30
2019-04-04T14:40:14.115Z,5.73
2019-04-04T14:42:42.544Z,5.10
2019-04-04T14:45:11.243Z,5.60
2019-04-04T14:47:39.686Z,5.53
2019-04-04T14:50:08.381Z,4.87
2019-04-04T14:52:39.440Z,5.83
2019-04-04T14:55:07.425Z,6.30
2019-04-04T14:57:35.863Z,5.77
2019-04-04T15:00:07.822Z,5.77
2019-04-04T15:02:36.276Z,6.10
2019-04-04T15:05:06.133Z,5.60
2019-04-04T15:07:34.567Z,6.07
2019-04-04T15:10:03.109Z,5.77
2019-04-04T15:12:31.536Z,5.63
2019-04-04T15:14:59.966Z,5.73
2019-04-04T15:17:28.478Z,17.17
2019-04-04T15:19:56.937Z,5.87
2019-04-04T15:22:25.413Z,5.67
2019-04-04T15:24:53.845Z,6.00
2019-04-04T15:27:22.295Z,5.67
2019-04-04T15:29:50.731Z,5.83
2019-04-04T15:32:19.204Z,6.00
2019-04-04T15:34:47.643Z,5.43
2019-04-04T15:37:16.104Z,5.63
2019-04-04T15:39:44.528Z,5.60
2019-04-04T15:42:12.968Z,5.97
2019-04-04T15:44:41.401Z,5.53
2019-04-04T15:47:09.856Z,6.07
2019-04-04T15:49:38.351Z,5.73
2019-04-04T15:52:06.807Z,5.80
2019-04-04T15:54:35.228Z,6.33
2019-04-04T15:57:03.687Z,5.60
2019-04-04T15:59:32.121Z,5.93
2019-04-04T16:02:00.581Z,5.27
2019-04-04T16:04:29.021Z,5.27
2019-04-04T16:06:57.483Z,5.37
2019-04-04T16:09:25.913Z,5.47
2019-04-04T16:11:54.404Z,5.83
2019-04-04T16:14:22.833Z,7.80
2019-04-04T16:16:52.201Z,11.87
2019-04-04T16:19:20.664Z,5.77
2019-04-04T16:21:49.108Z,5.77
2019-04-04T16:24:17.584Z,5.53
2019-04-04T16:26:46.005Z,5.93
2019-04-04T16:29:14.471Z,6.90
2019-04-04T16:31:42.922Z,5.10
2019-04-04T16:34:11.434Z,5.80
2019-04-04T16:36:39.865Z,5.87
2019-04-04T16:39:08.622Z,5.87
2019-04-04T16:41:37.068Z,5.63
2019-04-04T16:44:05.763Z,6.30
2019-04-04T16:46:34.244Z,6.07
2019-04-04T16:49:02.709Z,5.20
2019-04-04T16:51:31.157Z,5.80
2019-04-04T16:53:59.601Z,5.70
2019-04-04T16:56:28.031Z,5.53
2019-04-04T16:58:56.495Z,5.87
2019-04-04T17:01:24.996Z,6.53
2019-04-04T17:04:01.604Z,5.10
2019-04-04T17:06:23.617Z,6.30
2019-04-04T17:08:52.360Z,6.07
2019-04-04T17:11:20.788Z,5.77
2019-04-04T17:13:49.238Z,6.37
2019-04-04T17:16:17.701Z,7.10
2019-04-04T17:18:46.147Z,6.33
2019-04-04T17:21:14.594Z,5.93
2019-04-04T17:23:43.055Z,6.60
2019-04-04T17:26:11.572Z,6.50
2019-04-04T17:28:40.023Z,6.43
2019-04-04T17:31:09.042Z,6.23
2019-04-04T17:33:37.947Z,5.97
2019-04-04T17:36:06.409Z,6.10
2019-04-04T17:38:34.857Z,7.20
2019-04-04T17:41:03.384Z,6.43
2019-04-04T17:43:32.384Z,7.30
2019-04-04T17:46:00.949Z,6.70
2019-04-04T17:48:31.621Z,8.27
2019-04-04T17:50:59.831Z,17.93
2019-04-04T17:53:28.414Z,7.33
2019-04-04T17:55:57.066Z,6.67
2019-04-04T17:58:25.574Z,7.07
2019-04-04T18:00:54.029Z,6.57
2019-04-04T18:03:22.487Z,7.00
2019-04-04T18:05:50.928Z,6.70
2019-04-04T18:08:19.421Z,7.03
2019-04-04T18:10:47.932Z,7.47
2019-04-04T18:13:16.405Z,8.27
2019-04-04T18:15:44.838Z,7.77
2019-04-04T18:18:13.306Z,7.63
2019-04-04T18:20:41.817Z,7.63
2019-04-04T18:23:10.289Z,7.70
2019-04-04T18:25:38.736Z,7.20
2019-04-04T18:28:07.183Z,7.70
2019-04-04T18:30:35.690Z,7.13
2019-04-04T18:33:04.140Z,7.67
2019-04-04T18:35:32.624Z,9.30
2019-04-04T18:38:01.054Z,8.60
2019-04-04T18:40:29.524Z,9.50
2019-04-04T18:42:57.949Z,8.57
2019-04-04T18:45:26.419Z,7.80
2019-04-04T18:47:54.845Z,7.23
2019-04-04T18:50:23.308Z,7.47
2019-04-04T18:52:52.662Z,7.63
2019-04-04T18:55:21.148Z,8.03
2019-04-04T18:57:49.655Z,7.90
2019-04-04T19:00:18.648Z,8.33
2019-04-04T19:02:47.111Z,14.03
2019-04-04T19:05:15.799Z,9.70
2019-04-04T19:07:44.254Z,9.70
2019-04-04T19:10:12.844Z,11.77
2019-04-04T19:12:41.296Z,7.90
2019-04-04T19:15:10.271Z,7.87
2019-04-04T19:17:38.721Z,7.50
2019-04-04T19:20:09.970Z,8.47
2019-04-04T19:22:38.202Z,8.37
2019-04-04T19:25:07.276Z,9.00
2019-04-04T19:27:35.803Z,7.90
2019-04-04T19:30:09.305Z,8.77
2019-04-04T19:32:37.841Z,8.03
2019-04-04T19:35:09.304Z,8.17
2019-04-04T19:37:37.772Z,8.27
2019-04-04T19:40:06.774Z,8.27
2019-04-04T19:42:35.313Z,8.07
2019-04-04T19:45:05.485Z,8.07
2019-04-04T19:47:33.965Z,8.13
2019-04-04T19:50:02.474Z,19.03
2019-04-04T19:52:30.922Z,10.10
2019-04-04T19:54:59.393Z,8.13
2019-04-04T19:57:29.033Z,8.47
2019-04-04T19:59:57.458Z,9.97
2019-04-04T20:02:25.910Z,9.03
2019-04-04T20:04:54.360Z,8.97
2019-04-04T20:07:22.832Z,8.80
2019-04-04T20:09:51.294Z,8.67
2019-04-04T20:12:19.805Z,10.13
2019-04-04T20:14:48.304Z,9.57
2019-04-04T20:17:16.801Z,9.53
2019-04-04T20:19:45.253Z,9.33
2019-04-04T20:22:13.728Z,9.63
2019-04-04T20:24:42.163Z,9.27
2019-04-04T20:27:10.710Z,9.77
2019-04-04T20:29:39.139Z,9.53
2019-04-04T20:32:07.640Z,10.03
2019-04-04T20:34:36.157Z,9.93
2019-04-04T20:37:04.635Z,10.10
2019-04-04T20:39:33.219Z,10.47
2019-04-04T20:42:01.727Z,10.17
2019-04-04T20:44:30.187Z,9.60
2019-04-04T20:46:58.713Z,9.30
2019-04-04T20:49:27.180Z,9.87
2019-04-04T20:51:55.633Z,11.00
2019-04-04T20:54:24.080Z,9.30
2019-04-04T20:56:53.060Z,10.00
2019-04-04T20:59:21.502Z,9.80
2019-04-04T21:01:50.017Z,10.93
2019-04-04T21:04:18.483Z,10.77
2019-04-04T21:06:47.274Z,10.70
2019-04-04T21:09:15.762Z,10.17
2019-04-04T21:11:44.217Z,10.33
2019-04-04T21:14:17.198Z,10.00
2019-04-04T21:16:43.229Z,10.13
2019-04-04T21:19:11.820Z,9.97
2019-04-04T21:21:40.591Z,10.47
2019-04-04T21:24:09.271Z,10.90
2019-04-04T21:26:38.277Z,10.90
2019-04-04T21:29:06.873Z,10.00
2019-04-04T21:31:35.769Z,11.00
2019-04-04T21:34:04.344Z,11.20
2019-04-04T21:36:32.817Z,11.70
2019-04-04T21:39:01.263Z,10.28
2019-04-04T21:41:29.737Z,10.35
2019-04-04T21:44:08.147Z,11.30
2019-04-04T21:46:28.323Z,10.57
2019-04-04T21:49:06.371Z,10.67
2019-04-04T21:51:34.872Z,11.50
2019-04-04T21:54:03.965Z,11.55
2019-04-04T21:56:32.511Z,11.10
2019-04-04T21:59:01.433Z,11.53
2019-04-04T22:01:29.913Z,10.73
2019-04-04T22:03:58.363Z,10.13
2019-04-04T22:06:26.834Z,11.00
2019-04-04T22:08:55.264Z,10.77
2019-04-04T22:11:23.735Z,11.23
2019-04-04T22:13:53.128Z,10.53
2019-04-04T22:16:21.586Z,9.97
2019-04-04T22:18:50.039Z,10.20
2019-04-04T22:21:18.605Z,10.97
2019-04-04T22:23:47.040Z,10.73
2019-04-04T22:26:15.473Z,10.87
2019-04-04T22:28:43.959Z,10.63
2019-04-04T22:31:12.384Z,10.57
2019-04-04T22:33:40.855Z,10.53
2019-04-04T22:36:09.284Z,10.67
2019-04-04T22:38:37.824Z,10.63
2019-04-04T22:41:06.235Z,11.03
2019-04-04T22:43:34.684Z,11.00
2019-04-04T22:46:03.111Z,10.70
2019-04-04T22:48:31.563Z,10.93
2019-04-04T22:51:00.000Z,10.23
2019-04-04T22:53:28.509Z,10.83
2019-04-04T22:55:56.991Z,10.30
2019-04-04T22:58:28.554Z,10.43
2019-04-04T23:00:55.587Z,10.63
2019-04-04T23:03:25.099Z,10.63
2019-04-04T23:05:53.539Z,11.00
2019-04-04T23:08:21.976Z,10.30
2019-04-04T23:10:50.400Z,11.20
2019-04-04T23:13:18.849Z,9.77
2019-04-04T23:15:47.282Z,10.27
2019-04-04T23:18:15.726Z,10.80
2019-04-04T23:20:44.184Z,11.73
2019-04-04T23:23:12.630Z,10.53
2019-04-04T23:25:41.060Z,11.57
2019-04-04T23:28:09.528Z,10.70
2019-04-04T23:30:38.027Z,11.17
2019-04-04T23:33:06.483Z,11.20
2019-04-04T23:35:34.943Z,11.57
2019-04-04T23:38:03.440Z,11.10
2019-04-04T23:40:31.976Z,10.57
2019-04-04T23:43:00.396Z,11.63
2019-04-04T23:45:28.821Z,10.37
2019-04-04T23:47:57.262Z,11.30
2019-04-04T23:50:25.694Z,11.00
2019-04-04T23:52:54.119Z,11.07
2019-04-04T23:55:23.335Z,10.83
2019-04-04T23:57:51.763Z,11.30
